Time;durP1;ratioP1;P1;durP2;ratioP2;P2;SDS_P1;SDS_P2;PMS_P1;PMS_P2;Temp;Humidity;BMP_temperature;BMP_pressure;BME280_temperature;BME280_humidity;BME280_pressure;Samples;Min_cycle;Max_cycle;Signal;HPM_P1;HPM_P2
2021/06/06 00:01:59;;;;;;;6.40;1.02;;;;;;;;;;5105867;28;20047;-64
2021/06/06 00:04:26;;;;;;;4.60;0.60;;;;;;;;;;5102416;28;20098;-66
2021/06/06 00:06:53;;;;;;;2.83;0.65;;;;;;;;;;5097767;28;20463;-66
2021/06/06 00:09:21;;;;;;;2.20;0.80;;;;;;;;;;5093255;28;20039;-66
2021/06/06 00:11:50;;;;;;;3.35;0.60;;;;;;;;;;5105700;28;20489;-66
2021/06/06 00:14:20;;;;;;;1.88;0.55;;;;;;;;;;5097262;27;20069;-66
2021/06/06 00:16:49;;;;;;;2.20;0.50;;;;;;;;;;5107654;28;20034;-69
2021/06/06 00:19:18;;;;;;;3.17;0.60;;;;;;;;;;5111937;28;20115;-69
2021/06/06 00:21:45;;;;;;;2.47;0.60;;;;;;;;;;5102989;28;20111;-69
2021/06/06 00:24:13;;;;;;;4.40;0.60;;;;;;;;;;5101238;28;20050;-68
2021/06/06 00:26:40;;;;;;;3.85;0.55;;;;;;;;;;5110839;28;20024;-68
2021/06/06 00:29:07;;;;;;;2.13;0.40;;;;;;;;;;5108708;28;20028;-69
2021/06/06 00:31:35;;;;;;;2.90;0.52;;;;;;;;;;5108226;28;20026;-68
2021/06/06 00:34:02;;;;;;;3.65;0.47;;;;;;;;;;5090129;28;20035;-68
2021/06/06 00:36:29;;;;;;;2.42;0.60;;;;;;;;;;5109596;28;20030;-69
2021/06/06 00:38:56;;;;;;;2.28;0.35;;;;;;;;;;5097139;28;20058;-69
2021/06/06 00:41:25;;;;;;;3.85;0.57;;;;;;;;;;5102267;28;20028;-68
2021/06/06 00:43:52;;;;;;;1.90;0.40;;;;;;;;;;5103219;28;20030;-70
2021/06/06 00:46:20;;;;;;;4.38;0.43;;;;;;;;;;5110769;28;20027;-70
2021/06/06 00:48:47;;;;;;;2.40;0.63;;;;;;;;;;5110001;28;20023;-69
2021/06/06 00:51:25;;;;;;;3.10;0.50;;;;;;;;;;5106896;28;20028;-69
2021/06/06 00:54:12;;;;;;;2.90;0.35;;;;;;;;;;5104348;28;20066;-68
2021/06/06 00:56:40;;;;;;;2.92;0.60;;;;;;;;;;5102838;28;20349;-69
2021/06/06 00:59:07;;;;;;;4.20;0.70;;;;;;;;;;5085623;28;20036;-70
2021/06/06 01:01:34;;;;;;;2.28;0.82;;;;;;;;;;5105856;28;20119;-68
2021/06/06 01:04:02;;;;;;;2.90;0.60;;;;;;;;;;5082471;28;20028;-69
2021/06/06 01:06:34;;;;;;;4.05;0.60;;;;;;;;;;5078946;28;20023;-70
2021/06/06 01:09:03;;;;;;;2.17;0.70;;;;;;;;;;5078649;28;20054;-69
2021/06/06 01:11:36;;;;;;;2.70;0.60;;;;;;;;;;5099706;28;20024;-70
2021/06/06 01:14:07;;;;;;;2.17;0.80;;;;;;;;;;5100540;27;20729;-70
2021/06/06 01:16:40;;;;;;;2.88;0.43;;;;;;;;;;5103388;28;20024;-68
2021/06/06 01:19:13;;;;;;;3.63;0.60;;;;;;;;;;5098859;28;20028;-67
2021/06/06 01:21:40;;;;;;;2.65;0.73;;;;;;;;;;5104282;28;20024;-65
2021/06/06 01:24:07;;;;;;;2.80;0.70;;;;;;;;;;5101749;28;20531;-64
2021/06/06 01:26:38;;;;;;;5.40;2.95;;;;;;;;;;5105442;28;20043;-64
2021/06/06 01:29:23;;;;;;;1.85;0.60;;;;;;;;;;5103426;28;20028;-65
2021/06/06 01:31:53;;;;;;;1.23;0.40;;;;;;;;;;5107958;28;20353;-65
2021/06/06 01:34:22;;;;;;;2.28;0.50;;;;;;;;;;5110581;28;20412;-65
2021/06/06 01:36:54;;;;;;;2.97;1.02;;;;;;;;;;5100461;28;20088;-66
2021/06/06 01:39:24;;;;;;;2.53;0.50;;;;;;;;;;5094551;28;20393;-65
2021/06/06 01:41:55;;;;;;;1.83;0.73;;;;;;;;;;5109364;28;20051;-65
2021/06/06 01:44:24;;;;;;;3.35;0.70;;;;;;;;;;5116134;28;20027;-65
2021/06/06 01:46:54;;;;;;;2.25;0.55;;;;;;;;;;5113567;28;20081;-65
2021/06/06 01:49:22;;;;;;;2.20;0.40;;;;;;;;;;5114855;28;20028;-65
2021/06/06 01:51:52;;;;;;;1.98;0.50;;;;;;;;;;5115148;28;20107;-65
2021/06/06 01:54:21;;;;;;;2.65;0.70;;;;;;;;;;5113719;28;20106;-65
2021/06/06 01:56:50;;;;;;;3.60;0.63;;;;;;;;;;5110097;28;20053;-66
2021/06/06 01:59:28;;;;;;;1.63;0.50;;;;;;;;;;5114227;28;20547;-65
2021/06/06 02:01:55;;;;;;;3.20;0.40;;;;;;;;;;5114368;28;20437;-66
2021/06/06 02:04:23;;;;;;;1.67;0.60;;;;;;;;;;5115442;28;20020;-66
2021/06/06 02:07:08;;;;;;;1.40;0.55;;;;;;;;;;5106478;27;20361;-65
2021/06/06 02:09:37;;;;;;;4.38;1.52;;;;;;;;;;5094844;28;20028;-65
2021/06/06 02:12:06;;;;;;;4.63;1.60;;;;;;;;;;5089558;28;20055;-65
2021/06/06 02:14:37;;;;;;;2.85;0.50;;;;;;;;;;5113512;28;20019;-65
2021/06/06 02:17:06;;;;;;;1.38;0.43;;;;;;;;;;5105444;28;20038;-65
2021/06/06 02:19:34;;;;;;;1.40;0.45;;;;;;;;;;5115221;28;20024;-65
2021/06/06 02:22:05;;;;;;;1.63;0.40;;;;;;;;;;5114331;28;20027;-65
2021/06/06 02:24:33;;;;;;;0.98;0.30;;;;;;;;;;5115290;28;20157;-64
2021/06/06 02:27:12;;;;;;;3.00;0.52;;;;;;;;;;5109502;28;20034;-65
2021/06/06 02:29:43;;;;;;;1.05;0.40;;;;;;;;;;5106601;28;20028;-66
2021/06/06 02:32:25;;;;;;;3.50;0.50;;;;;;;;;;5114133;27;20511;-65
2021/06/06 02:35:02;;;;;;;2.63;0.73;;;;;;;;;;5115191;28;20062;-65
2021/06/06 02:37:41;;;;;;;3.10;0.60;;;;;;;;;;5114020;28;20020;-65
2021/06/06 02:40:23;;;;;;;2.67;0.40;;;;;;;;;;5114542;28;20560;-65
2021/06/06 02:42:51;;;;;;;1.35;0.52;;;;;;;;;;5097581;28;20043;-65
2021/06/06 02:45:26;;;;;;;1.88;0.85;;;;;;;;;;5101724;28;20031;-65
2021/06/06 02:47:55;;;;;;;2.20;0.43;;;;;;;;;;5115174;28;20061;-65
2021/06/06 02:50:27;;;;;;;2.65;0.98;;;;;;;;;;5112521;28;20020;-65
2021/06/06 02:52:58;;;;;;;1.17;0.45;;;;;;;;;;5114772;28;20468;-66
2021/06/06 02:55:27;;;;;;;1.77;0.70;;;;;;;;;;5110734;28;20031;-66
2021/06/06 02:57:58;;;;;;;0.80;0.20;;;;;;;;;;5112515;28;20035;-66
2021/06/06 03:00:31;;;;;;;1.20;0.35;;;;;;;;;;5113375;28;20022;-66
2021/06/06 03:03:01;;;;;;;2.63;0.40;;;;;;;;;;5114578;28;20104;-68
2021/06/06 03:05:30;;;;;;;3.15;0.50;;;;;;;;;;5113443;28;20028;-67
2021/06/06 03:07:59;;;;;;;2.88;0.50;;;;;;;;;;5113393;28;20016;-67
2021/06/06 03:10:28;;;;;;;2.80;0.47;;;;;;;;;;5113407;28;20368;-67
2021/06/06 03:12:57;;;;;;;1.48;0.40;;;;;;;;;;5114311;28;20486;-67
2021/06/06 03:15:28;;;;;;;1.58;0.50;;;;;;;;;;5111605;28;20493;-66
2021/06/06 03:17:55;;;;;;;5.63;0.80;;;;;;;;;;5112795;28;20031;-66
2021/06/06 03:20:25;;;;;;;0.73;0.20;;;;;;;;;;5103566;27;20027;-66
2021/06/06 03:22:54;;;;;;;1.35;0.20;;;;;;;;;;5114521;28;20028;-66
2021/06/06 03:25:41;;;;;;;2.85;0.35;;;;;;;;;;5110842;28;20035;-66
2021/06/06 03:28:10;;;;;;;1.55;0.40;;;;;;;;;;5093165;28;20059;-66
2021/06/06 03:30:48;;;;;;;0.77;0.25;;;;;;;;;;5096064;28;20049;-66
2021/06/06 03:33:20;;;;;;;2.38;0.30;;;;;;;;;;5103922;28;20070;-66
2021/06/06 03:35:47;;;;;;;0.60;0.20;;;;;;;;;;5098109;28;20073;-66
2021/06/06 03:38:15;;;;;;;1.80;0.35;;;;;;;;;;5109837;28;20085;-67
2021/06/06 03:40:45;;;;;;;1.17;0.20;;;;;;;;;;5097379;27;20022;-66
2021/06/06 03:43:14;;;;;;;1.42;0.50;;;;;;;;;;5099987;27;20027;-65
2021/06/06 03:45:42;;;;;;;1.70;0.32;;;;;;;;;;5103845;27;20030;-65
2021/06/06 03:48:12;;;;;;;1.83;0.30;;;;;;;;;;5093852;28;20036;-65
2021/06/06 03:50:40;;;;;;;4.07;0.77;;;;;;;;;;5102600;27;20031;-65
2021/06/06 03:53:07;;;;;;;4.13;0.80;;;;;;;;;;5094914;28;20028;-65
2021/06/06 03:55:34;;;;;;;2.40;0.80;;;;;;;;;;5097140;28;20464;-65
2021/06/06 03:58:02;;;;;;;3.75;0.65;;;;;;;;;;5109591;28;20369;-66
2021/06/06 04:00:31;;;;;;;4.40;0.40;;;;;;;;;;5108198;28;20510;-65
2021/06/06 04:02:59;;;;;;;1.63;0.40;;;;;;;;;;5101701;28;20053;-65
2021/06/06 04:05:27;;;;;;;1.83;0.32;;;;;;;;;;5110673;28;20068;-65
2021/06/06 04:07:54;;;;;;;1.55;0.40;;;;;;;;;;5103046;28;20023;-65
2021/06/06 04:10:22;;;;;;;1.20;0.30;;;;;;;;;;5099331;28;20046;-65
2021/06/06 04:12:49;;;;;;;1.02;0.20;;;;;;;;;;5109848;27;20024;-65
2021/06/06 04:15:17;;;;;;;1.30;0.22;;;;;;;;;;5103859;27;20020;-64
2021/06/06 04:17:45;;;;;;;1.55;0.32;;;;;;;;;;5100147;28;20142;-64
2021/06/06 04:20:14;;;;;;;1.17;0.30;;;;;;;;;;5105588;27;20020;-64
2021/06/06 04:22:41;;;;;;;1.77;0.30;;;;;;;;;;5103116;28;20027;-65
2021/06/06 04:25:09;;;;;;;1.02;0.10;;;;;;;;;;5107140;27;20047;-65
2021/06/06 04:27:36;;;;;;;4.10;0.35;;;;;;;;;;5108819;28;20426;-65
2021/06/06 04:30:05;;;;;;;10.52;5.68;;;;;;;;;;5105260;28;20024;-65
2021/06/06 04:32:32;;;;;;;2.38;0.38;;;;;;;;;;5102748;28;20408;-64
2021/06/06 04:34:59;;;;;;;1.10;0.40;;;;;;;;;;5110787;28;20055;-64
2021/06/06 04:37:26;;;;;;;2.00;0.47;;;;;;;;;;5097935;28;20020;-65
2021/06/06 04:39:55;;;;;;;2.13;0.40;;;;;;;;;;5095817;28;20081;-66
2021/06/06 04:42:22;;;;;;;1.35;0.30;;;;;;;;;;5101537;28;20171;-64
2021/06/06 04:44:50;;;;;;;3.10;0.85;;;;;;;;;;5098608;28;20018;-64
2021/06/06 04:47:18;;;;;;;2.05;0.20;;;;;;;;;;5105741;27;20106;-64
2021/06/06 04:49:45;;;;;;;3.28;0.40;;;;;;;;;;5108302;28;20020;-64
2021/06/06 04:52:14;;;;;;;0.50;0.20;;;;;;;;;;5101545;28;20023;-64
2021/06/06 04:54:41;;;;;;;1.55;0.30;;;;;;;;;;5104183;28;20032;-64
2021/06/06 04:57:09;;;;;;;1.15;0.10;;;;;;;;;;5101996;27;20089;-64
2021/06/06 04:59:37;;;;;;;2.35;0.40;;;;;;;;;;5092274;28;20085;-64
2021/06/06 05:02:11;;;;;;;1.88;0.85;;;;;;;;;;5099423;28;20031;-64
2021/06/06 05:04:40;;;;;;;1.92;0.30;;;;;;;;;;5095919;28;20095;-64
2021/06/06 05:07:07;;;;;;;2.35;0.22;;;;;;;;;;5107573;28;20024;-65
2021/06/06 05:09:35;;;;;;;1.35;0.50;;;;;;;;;;5110696;28;20030;-65
2021/06/06 05:12:02;;;;;;;1.70;0.25;;;;;;;;;;5105037;28;20023;-64
2021/06/06 05:14:29;;;;;;;2.00;0.30;;;;;;;;;;5108315;28;20410;-65
2021/06/06 05:16:56;;;;;;;1.45;0.30;;;;;;;;;;5105882;28;20063;-65
2021/06/06 05:19:23;;;;;;;7.18;1.95;;;;;;;;;;5100064;28;20068;-65
2021/06/06 05:21:50;;;;;;;1.98;0.75;;;;;;;;;;5109727;28;20032;-64
2021/06/06 05:24:18;;;;;;;1.63;0.38;;;;;;;;;;5102074;28;20472;-64
2021/06/06 05:26:45;;;;;;;9.90;8.90;;;;;;;;;;5101102;28;20040;-65
2021/06/06 05:29:12;;;;;;;4.30;0.93;;;;;;;;;;5108667;28;20031;-65
2021/06/06 05:31:39;;;;;;;2.28;0.40;;;;;;;;;;5102376;28;20126;-65
2021/06/06 05:34:07;;;;;;;1.77;0.50;;;;;;;;;;5096457;28;20040;-65
2021/06/06 05:36:35;;;;;;;2.63;0.20;;;;;;;;;;5103268;28;20479;-65
2021/06/06 05:39:02;;;;;;;3.80;0.68;;;;;;;;;;5111976;28;20035;-65
2021/06/06 05:41:29;;;;;;;1.55;0.20;;;;;;;;;;5105208;28;20031;-67
2021/06/06 05:43:58;;;;;;;4.68;0.98;;;;;;;;;;5111910;28;20020;-66
2021/06/06 05:46:25;;;;;;;2.20;0.30;;;;;;;;;;5103917;28;20149;-67
2021/06/06 05:48:52;;;;;;;2.30;0.60;;;;;;;;;;5090785;28;20358;-66
2021/06/06 05:51:20;;;;;;;3.13;1.05;;;;;;;;;;5100439;28;20447;-66
2021/06/06 05:53:47;;;;;;;2.42;0.60;;;;;;;;;;5110526;28;20412;-66
2021/06/06 05:56:14;;;;;;;2.35;0.30;;;;;;;;;;5109356;28;20023;-66
2021/06/06 05:58:41;;;;;;;2.80;0.93;;;;;;;;;;5109361;28;20028;-66
2021/06/06 06:01:09;;;;;;;3.85;1.90;;;;;;;;;;5098289;28;20499;-67
2021/06/06 06:03:37;;;;;;;3.92;1.30;;;;;;;;;;5090915;28;20102;-66
2021/06/06 06:06:04;;;;;;;2.40;0.50;;;;;;;;;;5101182;28;20035;-65
2021/06/06 06:08:33;;;;;;;1.98;0.93;;;;;;;;;;5111723;28;20019;-66
2021/06/06 06:11:00;;;;;;;3.55;0.95;;;;;;;;;;5109944;28;20027;-66
2021/06/06 06:13:28;;;;;;;5.88;4.15;;;;;;;;;;5107167;28;20053;-66
2021/06/06 06:15:56;;;;;;;7.47;4.20;;;;;;;;;;5104763;28;20054;-66
2021/06/06 06:18:25;;;;;;;5.93;2.35;;;;;;;;;;5106022;28;20034;-66
2021/06/06 06:20:53;;;;;;;5.97;1.70;;;;;;;;;;5106817;28;20050;-65
2021/06/06 06:23:20;;;;;;;6.03;1.92;;;;;;;;;;5104145;28;20020;-66
2021/06/06 06:25:48;;;;;;;3.17;0.60;;;;;;;;;;5105594;28;20019;-66
2021/06/06 06:28:15;;;;;;;2.85;1.08;;;;;;;;;;5107388;28;20047;-65
2021/06/06 06:30:43;;;;;;;8.02;1.60;;;;;;;;;;5097421;28;20020;-65
2021/06/06 06:33:10;;;;;;;3.25;1.60;;;;;;;;;;5096470;28;20020;-65
2021/06/06 06:35:37;;;;;;;2.17;0.50;;;;;;;;;;5097499;27;20126;-65
2021/06/06 06:38:05;;;;;;;4.78;1.00;;;;;;;;;;5114564;28;20472;-65
2021/06/06 06:40:33;;;;;;;4.25;1.60;;;;;;;;;;5112405;28;20023;-65
2021/06/06 06:43:00;;;;;;;3.75;1.20;;;;;;;;;;5109062;28;20027;-65
2021/06/06 06:45:29;;;;;;;6.00;3.00;;;;;;;;;;5110237;28;20462;-66
2021/06/06 06:48:00;;;;;;;6.15;1.58;;;;;;;;;;5100859;27;20028;-66
2021/06/06 06:50:27;;;;;;;3.58;1.30;;;;;;;;;;5101806;28;20111;-65
2021/06/06 06:52:56;;;;;;;3.30;1.08;;;;;;;;;;5106771;28;20315;-66
2021/06/06 06:55:24;;;;;;;3.25;1.10;;;;;;;;;;5098309;28;20047;-65
2021/06/06 06:57:51;;;;;;;5.93;1.95;;;;;;;;;;5105771;28;20084;-66
2021/06/06 07:00:20;;;;;;;6.78;1.80;;;;;;;;;;5102388;28;20028;-65
2021/06/06 07:02:48;;;;;;;5.80;1.90;;;;;;;;;;5094423;28;20023;-65
2021/06/06 07:05:15;;;;;;;6.00;1.27;;;;;;;;;;5097701;27;20024;-66
2021/06/06 07:07:42;;;;;;;5.22;0.98;;;;;;;;;;5109900;28;20021;-66
2021/06/06 07:10:12;;;;;;;6.40;1.27;;;;;;;;;;5111382;28;20027;-66
2021/06/06 07:12:39;;;;;;;3.45;1.20;;;;;;;;;;5104402;28;20036;-65
2021/06/06 07:15:08;;;;;;;5.43;1.65;;;;;;;;;;5112403;28;20483;-65
2021/06/06 07:17:35;;;;;;;7.90;1.40;;;;;;;;;;5107089;27;20107;-65
2021/06/06 07:20:06;;;;;;;6.60;1.20;;;;;;;;;;5109006;28;20031;-65
2021/06/06 07:22:33;;;;;;;2.92;1.30;;;;;;;;;;5113084;28;20024;-65
2021/06/06 07:25:00;;;;;;;7.68;1.55;;;;;;;;;;5113767;28;20027;-65
2021/06/06 07:27:30;;;;;;;8.93;1.20;;;;;;;;;;5110861;28;20023;-65
2021/06/06 07:29:57;;;;;;;7.15;1.45;;;;;;;;;;5109061;28;20023;-65
2021/06/06 07:32:24;;;;;;;3.60;1.27;;;;;;;;;;5113107;28;20065;-65
2021/06/06 07:34:52;;;;;;;7.60;1.83;;;;;;;;;;5113209;28;20046;-65
2021/06/06 07:37:20;;;;;;;8.45;1.63;;;;;;;;;;5107638;27;20123;-65
2021/06/06 07:39:47;;;;;;;6.20;2.17;;;;;;;;;;5093858;28;20040;-65
2021/06/06 07:42:14;;;;;;;10.18;1.63;;;;;;;;;;5104309;28;20016;-65
2021/06/06 07:44:42;;;;;;;5.68;1.38;;;;;;;;;;5100152;28;20015;-66
2021/06/06 07:47:10;;;;;;;5.32;1.27;;;;;;;;;;5106332;28;20016;-65
2021/06/06 07:49:38;;;;;;;5.53;1.50;;;;;;;;;;5105715;28;20024;-65
2021/06/06 07:52:06;;;;;;;8.68;1.98;;;;;;;;;;5101236;28;20020;-65
2021/06/06 07:54:34;;;;;;;6.40;1.38;;;;;;;;;;5099745;28;20081;-65
2021/06/06 07:57:02;;;;;;;6.50;1.77;;;;;;;;;;5099089;28;20024;-66
2021/06/06 07:59:29;;;;;;;9.25;2.20;;;;;;;;;;5098245;28;20027;-67
2021/06/06 08:01:56;;;;;;;8.27;1.67;;;;;;;;;;5098668;28;20024;-67
2021/06/06 08:04:23;;;;;;;12.80;5.72;;;;;;;;;;5093060;28;20024;-69
2021/06/06 08:06:51;;;;;;;10.80;3.88;;;;;;;;;;5093823;28;20494;-69
2021/06/06 08:09:18;;;;;;;11.98;3.95;;;;;;;;;;5093636;28;20488;-69
2021/06/06 08:11:45;;;;;;;7.25;3.05;;;;;;;;;;5110422;28;20028;-68
2021/06/06 08:14:12;;;;;;;13.48;4.32;;;;;;;;;;5112395;28;20022;-66
2021/06/06 08:16:40;;;;;;;9.45;4.32;;;;;;;;;;5111960;28;20424;-66
2021/06/06 08:19:07;;;;;;;7.22;3.83;;;;;;;;;;5097372;28;20046;-66
2021/06/06 08:21:38;;;;;;;18.30;10.20;;;;;;;;;;5104855;27;20036;-67
2021/06/06 08:24:07;;;;;;;14.02;7.00;;;;;;;;;;5096117;28;20015;-68
2021/06/06 08:26:34;;;;;;;13.07;4.50;;;;;;;;;;5108591;28;20020;-68
2021/06/06 08:29:03;;;;;;;20.00;6.75;;;;;;;;;;5111320;28;20028;-68
2021/06/06 08:31:32;;;;;;;8.18;4.03;;;;;;;;;;5103201;28;20069;-69
2021/06/06 08:34:00;;;;;;;7.32;2.42;;;;;;;;;;5110093;28;20529;-68
2021/06/06 08:36:32;;;;;;;9.13;3.75;;;;;;;;;;5111886;28;20024;-68
2021/06/06 08:39:00;;;;;;;8.00;3.70;;;;;;;;;;5113172;28;20019;-67
2021/06/06 08:41:46;;;;;;;10.20;3.33;;;;;;;;;;5101487;27;20016;-68
2021/06/06 08:44:17;;;;;;;9.40;3.08;;;;;;;;;;5097805;28;20031;-67
2021/06/06 08:47:04;;;;;;;8.25;3.10;;;;;;;;;;5105252;28;20020;-67
2021/06/06 08:49:37;;;;;;;9.70;3.88;;;;;;;;;;5100091;28;20032;-67
2021/06/06 08:52:16;;;;;;;11.27;4.53;;;;;;;;;;5096852;28;20028;-67
2021/06/06 08:54:51;;;;;;;12.88;5.38;;;;;;;;;;5105152;28;20103;-67
2021/06/06 08:57:17;;;;;;;;;;;;;;;;;;5110966;28;20024;-67
2021/06/06 08:59:48;;;;;;;12.13;5.68;;;;;;;;;;5110578;28;19916;-67
2021/06/06 09:02:35;;;;;;;10.40;5.18;;;;;;;;;;5103778;28;20066;-66
2021/06/06 09:05:04;;;;;;;10.38;4.60;;;;;;;;;;5092206;28;20043;-66
2021/06/06 09:07:38;;;;;;;7.15;3.78;;;;;;;;;;5101538;28;20028;-67
2021/06/06 09:10:16;;;;;;;11.02;5.68;;;;;;;;;;5106197;28;20016;-67
2021/06/06 09:12:43;;;;;;;15.13;5.47;;;;;;;;;;5100597;28;20036;-67
2021/06/06 09:15:12;;;;;;;14.13;4.32;;;;;;;;;;5103131;28;20019;-66
2021/06/06 09:17:41;;;;;;;9.52;5.00;;;;;;;;;;5109928;28;20023;-67
2021/06/06 09:20:23;;;;;;;7.07;3.50;;;;;;;;;;5103639;28;20020;-67
2021/06/06 09:22:50;;;;;;;12.60;6.07;;;;;;;;;;5105179;28;20066;-67
2021/06/06 09:25:27;;;;;;;14.55;6.32;;;;;;;;;;5111624;28;20065;-67
2021/06/06 09:28:07;;;;;;;9.18;4.93;;;;;;;;;;5096075;28;20020;-67
2021/06/06 09:30:36;;;;;;;10.45;6.25;;;;;;;;;;5094627;28;20074;-67
2021/06/06 09:33:06;;;;;;;7.97;4.28;;;;;;;;;;5099830;28;20055;-67
2021/06/06 09:35:37;;;;;;;12.95;5.05;;;;;;;;;;5100232;28;20047;-67
2021/06/06 09:38:22;;;;;;;9.70;4.47;;;;;;;;;;5111821;28;20085;-66
2021/06/06 09:40:50;;;;;;;11.13;5.10;;;;;;;;;;5111105;28;20485;-66
2021/06/06 09:43:21;;;;;;;9.88;5.95;;;;;;;;;;5107225;28;20123;-66
2021/06/06 09:45:48;;;;;;;11.18;5.47;;;;;;;;;;5104445;28;20022;-67
2021/06/06 09:48:29;;;;;;;10.57;6.53;;;;;;;;;;5103786;28;20036;-67
2021/06/06 09:50:56;;;;;;;12.65;5.10;;;;;;;;;;5100297;28;20039;-66
2021/06/06 09:53:31;;;;;;;7.53;4.13;;;;;;;;;;5087543;28;20125;-67
2021/06/06 09:56:07;;;;;;;7.63;4.40;;;;;;;;;;5108644;28;20477;-67
2021/06/06 09:58:38;;;;;;;8.80;4.10;;;;;;;;;;5098365;28;20051;-67
2021/06/06 10:01:25;;;;;;;8.13;4.22;;;;;;;;;;5114682;28;20414;-67
2021/06/06 10:03:57;;;;;;;12.05;4.13;;;;;;;;;;5112405;28;20059;-66
2021/06/06 10:06:35;;;;;;;14.13;6.07;;;;;;;;;;5110810;28;20024;-66
2021/06/06 10:09:05;;;;;;;15.02;5.60;;;;;;;;;;5115963;28;20051;-66
2021/06/06 10:11:58;;;;;;;11.63;5.85;;;;;;;;;;5102935;28;20059;-66
2021/06/06 10:14:34;;;;;;;10.40;4.35;;;;;;;;;;5110697;28;20067;-66
2021/06/06 10:17:03;;;;;;;8.32;5.05;;;;;;;;;;5115327;28;20020;-66
2021/06/06 10:19:33;;;;;;;9.07;4.47;;;;;;;;;;5112146;28;20111;-66
2021/06/06 10:22:05;;;;;;;9.10;4.93;;;;;;;;;;5099894;28;20102;-66
2021/06/06 10:24:37;;;;;;;12.68;4.70;;;;;;;;;;5113643;28;20047;-67
2021/06/06 10:27:09;;;;;;;9.68;4.65;;;;;;;;;;5108591;28;20086;-66
2021/06/06 10:30:14;;;;;;;11.27;5.25;;;;;;;;;;5115631;28;20055;-66
2021/06/06 10:32:45;;;;;;;8.15;4.47;;;;;;;;;;5018893;28;20053;-66
2021/06/06 10:35:17;;;;;;;11.48;4.93;;;;;;;;;;5024680;28;20073;-66
2021/06/06 10:37:46;;;;;;;8.57;4.78;;;;;;;;;;5052728;28;20032;-66
2021/06/06 10:40:22;;;;;;;9.88;3.88;;;;;;;;;;5092854;28;20060;-66
2021/06/06 10:42:54;;;;;;;7.40;4.15;;;;;;;;;;5089915;28;20050;-66
2021/06/06 10:45:21;;;;;;;10.07;3.92;;;;;;;;;;5084844;28;20419;-67
2021/06/06 10:47:53;;;;;;;10.27;4.20;;;;;;;;;;5075042;28;20040;-66
2021/06/06 10:50:29;;;;;;;8.20;4.20;;;;;;;;;;5084637;28;20036;-67
2021/06/06 10:53:07;;;;;;;11.10;4.10;;;;;;;;;;5087978;28;20427;-67
2021/06/06 10:55:45;;;;;;;6.55;4.35;;;;;;;;;;5094101;28;20024;-68
2021/06/06 10:58:18;;;;;;;9.30;4.78;;;;;;;;;;5082293;28;20105;-67
2021/06/06 11:01:04;;;;;;;9.37;5.07;;;;;;;;;;5081647;28;20020;-67
2021/06/06 11:03:35;;;;;;;6.72;4.05;;;;;;;;;;5080478;28;20028;-67
2021/06/06 11:06:03;;;;;;;9.38;4.60;;;;;;;;;;5093386;28;20115;-67
2021/06/06 11:08:31;;;;;;;7.45;5.13;;;;;;;;;;5086269;28;20024;-67
2021/06/06 11:11:13;;;;;;;7.53;4.82;;;;;;;;;;5082908;28;20028;-67
2021/06/06 11:13:45;;;;;;;10.25;5.28;;;;;;;;;;5084872;28;20048;-67
2021/06/06 11:16:18;;;;;;;11.48;5.25;;;;;;;;;;5086955;28;20024;-67
2021/06/06 11:19:04;;;;;;;9.77;5.00;;;;;;;;;;5080248;28;20123;-67
2021/06/06 11:21:39;;;;;;;9.57;5.47;;;;;;;;;;5084541;28;20458;-67
2021/06/06 11:24:25;;;;;;;8.23;5.40;;;;;;;;;;5083135;28;20082;-67
2021/06/06 11:27:10;;;;;;;13.15;7.00;;;;;;;;;;5085260;28;20017;-67
2021/06/06 11:29:54;;;;;;;9.25;6.03;;;;;;;;;;5081964;28;20541;-67
2021/06/06 11:32:27;;;;;;;12.27;5.82;;;;;;;;;;5084280;28;20027;-68
2021/06/06 11:35:08;;;;;;;10.40;6.72;;;;;;;;;;5100714;28;20072;-67
2021/06/06 11:37:42;;;;;;;10.90;6.18;;;;;;;;;;5092239;28;20060;-67
2021/06/06 11:40:25;;;;;;;12.25;7.30;;;;;;;;;;5112578;28;20055;-67
2021/06/06 11:42:53;;;;;;;20.75;7.82;;;;;;;;;;5110781;27;21237;-67
2021/06/06 11:45:26;;;;;;;14.05;8.77;;;;;;;;;;5099778;27;20039;-67
2021/06/06 11:48:10;;;;;;;16.55;9.00;;;;;;;;;;5105946;27;20462;-68
2021/06/06 11:50:44;;;;;;;15.82;10.23;;;;;;;;;;5108391;28;20384;-67
2021/06/06 11:53:23;;;;;;;18.77;9.93;;;;;;;;;;5105190;28;20023;-67
2021/06/06 11:55:52;;;;;;;15.30;11.55;;;;;;;;;;5108325;27;20106;-68
2021/06/06 11:58:35;;;;;;;14.20;8.50;;;;;;;;;;5101851;28;20111;-68
2021/06/06 12:01:14;;;;;;;13.73;8.38;;;;;;;;;;5104123;27;20027;-68
2021/06/06 12:03:45;;;;;;;13.25;7.15;;;;;;;;;;5099549;27;20020;-68
2021/06/06 12:06:14;;;;;;;11.05;7.15;;;;;;;;;;5104778;27;20026;-68
2021/06/06 12:08:41;;;;;;;14.60;8.95;;;;;;;;;;5105003;27;20026;-68
2021/06/06 12:11:14;;;;;;;13.13;9.15;;;;;;;;;;5124501;27;20472;-68
2021/06/06 12:13:41;;;;;;;14.00;8.50;;;;;;;;;;5106200;27;20476;-68
2021/06/06 12:16:11;;;;;;;12.38;8.20;;;;;;;;;;5083385;28;20071;-68
2021/06/06 12:18:40;;;;;;;13.52;9.23;;;;;;;;;;5098395;27;20030;-67
2021/06/06 12:21:07;;;;;;;13.75;9.00;;;;;;;;;;5101188;27;20028;-67
2021/06/06 12:23:45;;;;;;;14.43;8.75;;;;;;;;;;5102762;27;20020;-67
2021/06/06 12:26:12;;;;;;;17.33;10.13;;;;;;;;;;5111788;27;20034;-67
2021/06/06 12:28:44;;;;;;;11.68;8.40;;;;;;;;;;5113292;28;20023;-67
2021/06/06 12:31:26;;;;;;;14.07;8.98;;;;;;;;;;5108574;27;20361;-68
2021/06/06 12:33:54;;;;;;;14.25;9.23;;;;;;;;;;5097380;27;20020;-67
2021/06/06 12:36:22;;;;;;;15.32;9.25;;;;;;;;;;5100701;27;20026;-68
2021/06/06 12:38:50;;;;;;;15.07;9.43;;;;;;;;;;5094444;28;20169;-67
2021/06/06 12:41:17;;;;;;;19.98;10.75;;;;;;;;;;5097777;28;20020;-67
2021/06/06 12:43:48;;;;;;;17.02;10.80;;;;;;;;;;5091852;28;20032;-67
2021/06/06 12:46:15;;;;;;;18.13;11.15;;;;;;;;;;5094978;28;20020;-69
2021/06/06 12:48:57;;;;;;;15.80;11.13;;;;;;;;;;5103518;28;20495;-69
2021/06/06 12:51:28;;;;;;;16.48;11.50;;;;;;;;;;5101013;28;20031;-68
2021/06/06 12:54:04;;;;;;;15.75;9.77;;;;;;;;;;5097990;28;20072;-68
2021/06/06 12:56:35;;;;;;;12.30;9.82;;;;;;;;;;5086135;28;20028;-68
2021/06/06 12:59:05;;;;;;;16.27;9.85;;;;;;;;;;5087617;28;20075;-68
2021/06/06 13:01:32;;;;;;;16.38;10.18;;;;;;;;;;5100426;28;20162;-68
2021/06/06 13:04:09;;;;;;;18.02;10.63;;;;;;;;;;5093765;28;20590;-69
2021/06/06 13:06:39;;;;;;;14.07;9.43;;;;;;;;;;5099561;28;20130;-68
2021/06/06 13:09:08;;;;;;;14.18;7.43;;;;;;;;;;5098554;28;20036;-69
2021/06/06 13:11:37;;;;;;;17.80;9.32;;;;;;;;;;5099830;28;20016;-68
2021/06/06 13:14:15;;;;;;;15.52;8.55;;;;;;;;;;5098137;28;20468;-68
2021/06/06 13:16:47;;;;;;;16.38;10.20;;;;;;;;;;5102154;27;20020;-68
2021/06/06 13:19:18;;;;;;;15.90;10.10;;;;;;;;;;5101463;28;20030;-68
2021/06/06 13:21:47;;;;;;;19.85;10.20;;;;;;;;;;5105119;28;20148;-68
2021/06/06 13:24:17;;;;;;;13.70;8.02;;;;;;;;;;5097966;28;20028;-68
2021/06/06 13:26:46;;;;;;;11.98;7.68;;;;;;;;;;5095908;28;20020;-68
2021/06/06 13:29:29;;;;;;;12.93;7.88;;;;;;;;;;5104246;28;20111;-68
2021/06/06 13:31:56;;;;;;;13.35;7.75;;;;;;;;;;5101030;28;20062;-68
2021/06/06 13:34:23;;;;;;;12.35;7.70;;;;;;;;;;5095804;27;20123;-67
2021/06/06 13:36:52;;;;;;;12.60;7.97;;;;;;;;;;5101643;28;20027;-68
2021/06/06 13:39:26;;;;;;;14.73;8.65;;;;;;;;;;5101300;27;20032;-68
2021/06/06 13:41:54;;;;;;;13.70;8.88;;;;;;;;;;5109813;28;20028;-67
2021/06/06 13:44:21;;;;;;;15.98;9.85;;;;;;;;;;5111125;27;20024;-67
2021/06/06 13:46:49;;;;;;;14.65;9.05;;;;;;;;;;5112559;27;20059;-68
2021/06/06 13:49:16;;;;;;;15.55;8.75;;;;;;;;;;5113149;28;20426;-68
2021/06/06 13:51:44;;;;;;;15.40;8.82;;;;;;;;;;5106434;28;20016;-67
2021/06/06 13:54:11;;;;;;;13.95;8.80;;;;;;;;;;5108776;27;20157;-67
2021/06/06 13:56:39;;;;;;;14.10;7.55;;;;;;;;;;5115201;28;20424;-67
2021/06/06 13:59:07;;;;;;;11.13;8.23;;;;;;;;;;5078252;28;20040;-67
2021/06/06 14:01:35;;;;;;;13.25;7.43;;;;;;;;;;5112278;27;20108;-68
2021/06/06 14:04:03;;;;;;;12.73;7.57;;;;;;;;;;5099142;28;20027;-67
2021/06/06 14:06:30;;;;;;;13.32;7.75;;;;;;;;;;5101227;28;20124;-67
2021/06/06 14:08:57;;;;;;;15.25;8.13;;;;;;;;;;5101976;28;20074;-68
2021/06/06 14:11:29;;;;;;;13.57;7.90;;;;;;;;;;5103379;27;20110;-67
2021/06/06 14:13:56;;;;;;;11.00;7.00;;;;;;;;;;5097064;28;20099;-68
2021/06/06 14:16:25;;;;;;;13.93;8.82;;;;;;;;;;5108371;28;20027;-68
2021/06/06 14:18:54;;;;;;;12.90;8.38;;;;;;;;;;5096066;28;20507;-68
2021/06/06 14:21:22;;;;;;;16.00;9.65;;;;;;;;;;5099659;27;20035;-68
2021/06/06 14:23:53;;;;;;;15.30;10.02;;;;;;;;;;5106679;28;20032;-67
2021/06/06 14:26:21;;;;;;;18.85;10.30;;;;;;;;;;5113541;28;20030;-68
2021/06/06 14:28:48;;;;;;;17.40;10.40;;;;;;;;;;5110206;28;20035;-68
2021/06/06 14:31:15;;;;;;;16.77;10.88;;;;;;;;;;5101798;27;20024;-67
2021/06/06 14:33:42;;;;;;;18.70;10.77;;;;;;;;;;5106766;28;20072;-68
2021/06/06 14:36:10;;;;;;;15.65;10.60;;;;;;;;;;5102870;28;20114;-68
2021/06/06 14:38:37;;;;;;;17.48;10.65;;;;;;;;;;5099952;28;20134;-68
2021/06/06 14:41:05;;;;;;;17.42;10.82;;;;;;;;;;5107236;28;20032;-67
2021/06/06 14:43:33;;;;;;;18.23;11.88;;;;;;;;;;5108845;28;20548;-68
2021/06/06 14:46:00;;;;;;;26.10;12.25;;;;;;;;;;5099980;28;20380;-68
2021/06/06 14:48:29;;;;;;;17.02;11.27;;;;;;;;;;5095954;28;20035;-67
2021/06/06 14:50:57;;;;;;;17.80;11.80;;;;;;;;;;5102337;27;20093;-67
2021/06/06 14:53:25;;;;;;;21.92;11.75;;;;;;;;;;5112617;28;20028;-67
2021/06/06 14:55:53;;;;;;;15.52;10.63;;;;;;;;;;5100957;27;20471;-67
2021/06/06 14:58:25;;;;;;;15.90;10.25;;;;;;;;;;5101363;27;20044;-68